Time;durP1;ratioP1;P1;durP2;ratioP2;P2;SDS_P1;SDS_P2;PMS_P1;PMS_P2;Temp;Humidity;BMP_temperature;BMP_pressure;BME280_temperature;BME280_humidity;BME280_pressure;Samples;Min_cycle;Max_cycle;Signal;HPM_P1;HPM_P2
2022/12/09 00:01:45;;;;;;;66.77;27.23;;;;;;;-0.79;100.00;100685.38;10547818;27;20043;-72
2022/12/09 00:06:45;;;;;;;57.00;25.33;;;;;;;-0.85;100.00;100680.72;10568868;27;20069;-72
2022/12/09 00:11:46;;;;;;;55.80;25.03;;;;;;;-1.03;100.00;100672.97;10620033;27;20050;-73
2022/12/09 00:16:46;;;;;;;50.43;23.10;;;;;;;-1.07;100.00;100686.00;10620751;27;20035;-72
2022/12/09 00:21:47;;;;;;;47.97;22.17;;;;;;;-1.21;100.00;100681.38;10619317;27;20488;-72
2022/12/09 00:26:47;;;;;;;52.47;22.20;;;;;;;-1.20;100.00;100683.06;10584737;27;20035;-73
2022/12/09 00:31:48;;;;;;;52.37;21.83;;;;;;;-1.17;100.00;100688.09;10620027;27;20054;-72
2022/12/09 00:36:48;;;;;;;51.23;19.73;;;;;;;-1.18;100.00;100681.00;10589067;27;20031;-73
2022/12/09 00:41:50;;;;;;;47.90;20.63;;;;;;;-1.16;100.00;100695.19;10597286;27;20059;-72
2022/12/09 00:46:50;;;;;;;45.57;21.00;;;;;;;-1.16;100.00;100695.19;10601541;27;20043;-72
2022/12/09 00:51:52;;;;;;;47.93;18.77;;;;;;;-1.22;100.00;100691.34;10618331;27;20042;-73
2022/12/09 00:56:53;;;;;;;42.37;18.30;;;;;;;-1.13;100.00;100694.81;10586600;27;20036;-72
2022/12/09 01:01:53;;;;;;;43.93;17.93;;;;;;;-1.24;100.00;100676.34;10622454;27;20031;-73
2022/12/09 01:06:54;;;;;;;45.90;19.93;;;;;;;-1.17;100.00;100679.16;10586132;27;20039;-72
2022/12/09 01:11:54;;;;;;;50.73;18.70;;;;;;;-1.20;100.00;100677.66;10597696;27;20043;-72
2022/12/09 01:16:55;;;;;;;44.67;18.23;;;;;;;-1.23;100.00;100678.03;10539258;28;20541;-72
2022/12/09 01:21:56;;;;;;;52.77;20.23;;;;;;;-1.18;100.00;100681.00;10573380;27;20413;-73
2022/12/09 01:26:56;;;;;;;49.07;20.40;;;;;;;-1.15;100.00;100688.75;10561638;28;20035;-73
2022/12/09 01:31:57;;;;;;;63.77;22.97;;;;;;;-1.23;100.00;100678.84;10579524;28;20061;-71
2022/12/09 01:36:57;;;;;;;55.43;20.23;;;;;;;-1.29;100.00;100667.94;10578617;28;20050;-72
2022/12/09 01:42:01;;;;;;;52.28;19.83;;;;;;;-1.26;100.00;100689.19;10579665;28;20036;-72
2022/12/09 01:47:01;;;;;;;46.27;19.43;;;;;;;-1.22;100.00;100690.50;10578025;27;20116;-72
2022/12/09 01:52:04;;;;;;;52.73;20.57;;;;;;;-1.19;100.00;100695.56;10566425;27;20035;-73
2022/12/09 01:57:05;;;;;;;51.67;21.03;;;;;;;-1.35;100.00;100668.69;10586260;27;20031;-72
2022/12/09 02:02:05;;;;;;;56.97;20.83;;;;;;;-1.20;100.00;100696.56;10569931;27;20034;-72
2022/12/09 02:07:08;;;;;;;55.00;22.23;;;;;;;-1.18;100.00;100690.97;10568728;27;20048;-72
2022/12/09 02:12:24;;;;;;;60.17;22.73;;;;;;;-1.18;100.00;100690.97;10585887;27;20036;-72
2022/12/09 02:17:34;;;;;;;55.50;22.37;;;;;;;-1.29;100.00;100655.28;10584835;27;20092;-73
2022/12/09 02:22:44;;;;;;;60.47;22.87;;;;;;;-1.13;100.00;100684.03;10551677;27;20040;-73
2022/12/09 02:27:49;;;;;;;58.10;23.17;;;;;;;-1.07;100.00;100683.28;10567685;27;20103;-72
2022/12/09 02:33:01;;;;;;;52.00;21.03;;;;;;;-1.05;100.00;100692.06;10584961;27;20036;-72
2022/12/09 02:38:21;;;;;;;61.00;23.90;;;;;;;-1.02;100.00;100680.03;10582471;27;20084;-72
2022/12/09 02:43:24;;;;;;;59.93;22.67;;;;;;;-1.16;100.00;100651.94;10582021;27;20094;-73
2022/12/09 02:48:29;;;;;;;56.90;23.27;;;;;;;-1.10;100.00;100661.19;10564963;27;20038;-72
2022/12/09 02:53:30;;;;;;;52.63;22.63;;;;;;;-1.19;100.00;100662.31;10567845;27;20039;-73
2022/12/09 02:58:30;;;;;;;58.37;22.23;;;;;;;-1.45;100.00;100631.09;10567157;28;20024;-72
2022/12/09 03:03:31;;;;;;;59.33;23.93;;;;;;;-1.21;100.00;100665.19;10549264;27;20065;-73
2022/12/09 03:08:41;;;;;;;56.10;25.33;;;;;;;-1.23;100.00;100667.22;10524017;28;20063;-72
2022/12/09 03:14:08;;;;;;;59.10;23.07;;;;;;;-1.29;100.00;100667.94;10523759;28;20060;-73
2022/12/09 03:19:14;;;;;;;60.10;22.47;;;;;;;-1.39;100.00;100646.59;10558032;28;20087;-73
2022/12/09 03:24:17;;;;;;;58.45;22.40;;;;;;;-1.35;100.00;100668.69;10541075;28;20156;-73
2022/12/09 03:29:20;;;;;;;50.33;21.17;;;;;;;-1.42;100.00;100663.16;10521681;28;20079;-72
2022/12/09 03:34:27;;;;;;;58.37;23.23;;;;;;;-1.38;100.00;100664.50;10509449;27;20050;-73
2022/12/09 03:39:30;;;;;;;61.37;23.13;;;;;;;-1.46;100.00;100665.38;10561357;27;20096;-73
2022/12/09 03:45:09;;;;;;;57.40;22.20;;;;;;;-1.68;100.00;100650.03;10529706;28;20510;-72
2022/12/09 03:50:10;;;;;;;56.30;21.97;;;;;;;-1.92;100.00;100637.53;10435957;28;20493;-73
2022/12/09 03:55:34;;;;;;;53.07;21.03;;;;;;;-1.91;100.00;100650.00;10494936;28;20039;-72
2022/12/09 04:00:36;;;;;;;56.97;21.60;;;;;;;-1.96;100.00;100639.75;10539288;28;22238;-72
2022/12/09 04:05:36;;;;;;;54.07;21.87;;;;;;;-1.93;100.00;100639.38;10544616;27;20046;-73
2022/12/09 04:10:37;;;;;;;57.17;22.90;;;;;;;-1.97;100.00;100648.84;10580776;28;20047;-73
2022/12/09 04:15:37;;;;;;;56.30;21.90;;;;;;;-2.14;100.00;100631.09;10580744;27;20040;-72
2022/12/09 04:20:38;;;;;;;53.57;21.63;;;;;;;-2.19;100.00;100645.13;10564744;28;20035;-73
2022/12/09 04:25:38;;;;;;;52.43;21.90;;;;;;;-2.37;100.00;100633.75;10582239;27;20030;-73
2022/12/09 04:30:44;;;;;;;63.40;22.47;;;;;;;-2.45;100.00;100632.75;10585053;27;20527;-72
2022/12/09 04:35:44;;;;;;;62.83;23.83;;;;;;;-2.53;100.00;100621.19;10579178;28;20039;-73
2022/12/09 04:40:45;;;;;;;46.80;20.93;;;;;;;-2.57;100.00;100620.69;10579867;27;20088;-73
2022/12/09 04:45:45;;;;;;;62.07;22.93;;;;;;;-2.56;100.00;100619.69;10579800;28;20028;-73
2022/12/09 04:50:46;;;;;;;52.30;22.93;;;;;;;-2.60;100.00;100612.97;10582859;28;20028;-73
2022/12/09 04:55:46;;;;;;;53.30;23.13;;;;;;;-2.65;100.00;100613.50;10580254;28;20039;-72
2022/12/09 05:00:47;;;;;;;57.00;22.97;;;;;;;-2.73;100.00;100616.22;10563049;28;20040;-72
2022/12/09 05:05:47;;;;;;;54.20;21.10;;;;;;;-2.77;100.00;100636.44;10562893;28;20057;-72
2022/12/09 05:10:49;;;;;;;58.00;23.17;;;;;;;-2.84;100.00;100630.03;10578789;28;20035;-73
2022/12/09 05:15:49;;;;;;;51.90;21.20;;;;;;;-2.87;100.00;100633.09;10579847;28;20063;-73
2022/12/09 05:20:50;;;;;;;52.00;22.03;;;;;;;-2.93;100.00;100623.00;10563129;28;20028;-72
2022/12/09 05:25:50;;;;;;;54.27;22.03;;;;;;;-3.01;100.00;100628.41;10565546;27;20032;-73
2022/12/09 05:30:51;;;;;;;55.50;23.83;;;;;;;-3.10;100.00;100616.78;10584328;27;20043;-73
2022/12/09 05:35:51;;;;;;;57.70;21.93;;;;;;;-3.13;100.00;100622.53;10585801;28;20039;-73
2022/12/09 05:40:52;;;;;;;61.07;23.17;;;;;;;-3.30;100.00;100592.94;10562485;28;20051;-73
2022/12/09 05:45:52;;;;;;;53.90;22.33;;;;;;;-3.27;100.00;100607.91;10559678;27;20047;-73
2022/12/09 05:51:03;;;;;;;50.50;21.30;;;;;;;-3.29;100.00;100609.94;10544578;28;20051;-73
2022/12/09 05:56:03;;;;;;;62.53;22.43;;;;;;;-3.36;100.00;100603.56;10546015;28;20054;-73
2022/12/09 06:01:05;;;;;;;57.33;25.10;;;;;;;-3.37;100.00;100605.41;10551513;28;20089;-73
2022/12/09 06:06:07;;;;;;;62.93;24.53;;;;;;;-3.76;100.00;100543.38;10569099;27;20054;-73
2022/12/09 06:11:12;;;;;;;63.40;27.03;;;;;;;-3.45;100.00;100597.34;10558072;27;20035;-73
2022/12/09 06:16:13;;;;;;;66.53;27.70;;;;;;;-3.37;100.00;100610.81;10585863;27;20035;-73
2022/12/09 06:21:15;;;;;;;62.97;24.63;;;;;;;-3.39;100.00;100610.13;10569095;27;20035;-74
2022/12/09 06:26:16;;;;;;;67.20;27.07;;;;;;;-3.50;100.00;100608.59;10568594;27;20118;-73
2022/12/09 06:31:17;;;;;;;65.63;25.77;;;;;;;-4.02;100.00;100532.81;10551084;27;20050;-73
2022/12/09 06:36:18;;;;;;;60.93;25.33;;;;;;;-3.75;100.00;100580.88;10584133;27;20604;-73
2022/12/09 06:41:18;;;;;;;63.07;26.33;;;;;;;-3.64;100.00;100606.59;10581725;27;20594;-73
2022/12/09 06:46:21;;;;;;;59.17;24.70;;;;;;;-3.71;100.00;100600.22;10585365;27;20080;-73
2022/12/09 06:51:22;;;;;;;69.23;26.13;;;;;;;-3.74;100.00;100593.31;10567009;27;20036;-74
2022/12/09 06:56:23;;;;;;;68.43;25.43;;;;;;;-3.85;100.00;100588.25;10567725;27;20042;-73
2022/12/09 07:01:23;;;;;;;58.70;24.13;;;;;;;-3.85;100.00;100591.78;10550540;27;20062;-73
2022/12/09 07:06:35;;;;;;;64.00;24.63;;;;;;;-3.85;100.00;100599.84;10584187;27;20032;-74
2022/12/09 07:11:36;;;;;;;70.40;28.40;;;;;;;-3.95;100.00;100588.44;10568629;27;20487;-73
2022/12/09 07:16:37;;;;;;;65.00;27.90;;;;;;;-3.81;100.00;100603.06;10584328;27;20035;-73
2022/12/09 07:21:37;;;;;;;92.07;34.27;;;;;;;-3.88;100.00;100602.06;10583216;27;20039;-73
2022/12/09 07:26:38;;;;;;;69.20;29.93;;;;;;;-3.90;100.00;100596.84;10566104;27;20035;-73
2022/12/09 07:31:38;;;;;;;72.30;27.37;;;;;;;-3.89;100.00;100608.44;10583148;27;20032;-73
2022/12/09 07:36:39;;;;;;;70.30;28.03;;;;;;;-3.83;100.00;100613.13;10565278;28;20542;-74
2022/12/09 07:41:39;;;;;;;73.70;27.63;;;;;;;-3.85;100.00;100605.22;10563182;27;20408;-73
2022/12/09 07:46:40;;;;;;;83.40;28.57;;;;;;;-3.92;100.00;100598.03;10584051;27;20032;-73
2022/12/09 07:51:41;;;;;;;88.43;28.47;;;;;;;-4.18;100.00;100549.75;10582312;27;20043;-73
2022/12/09 07:56:41;;;;;;;70.93;28.03;;;;;;;-3.72;100.00;100615.53;10581656;27;20071;-71
2022/12/09 08:01:42;;;;;;;70.53;29.13;;;;;;;-3.83;100.00;100606.94;10565463;27;20093;-73
2022/12/09 08:06:42;;;;;;;77.77;29.03;;;;;;;-3.75;100.00;100615.00;10580940;27;20098;-73
2022/12/09 08:11:43;;;;;;;81.07;31.07;;;;;;;-3.83;100.00;100590.78;10564582;27;20038;-73
2022/12/09 08:16:43;;;;;;;77.13;29.93;;;;;;;-3.67;100.00;100628.47;10581777;27;20057;-73
2022/12/09 08:21:44;;;;;;;76.23;28.27;;;;;;;-3.68;100.00;100616.00;10580409;28;20036;-74
2022/12/09 08:26:44;;;;;;;84.87;31.00;;;;;;;-3.63;100.00;100624.44;10582527;27;20040;-73
2022/12/09 08:31:45;;;;;;;79.57;31.57;;;;;;;-3.64;100.00;100614.66;10563574;27;20391;-74
2022/12/09 08:36:45;;;;;;;83.80;31.20;;;;;;;-3.50;100.00;100635.50;10582201;27;20420;-72
2022/12/09 08:41:46;;;;;;;93.13;30.90;;;;;;;-3.41;100.00;100643.59;10580582;28;20493;-73
2022/12/09 08:46:48;;;;;;;90.90;32.07;;;;;;;-3.45;100.00;100614.34;10579788;28;20027;-70
2022/12/09 08:51:49;;;;;;;94.17;33.17;;;;;;;-3.63;100.00;100567.91;10546401;28;20065;-72
2022/12/09 08:56:52;;;;;;;93.47;35.97;;;;;;;-3.19;100.00;100610.59;10563272;28;20047;-72
2022/12/09 09:01:52;;;;;;;90.00;34.53;;;;;;;-2.99;100.00;100642.56;10588988;27;20067;-73
2022/12/09 09:06:53;;;;;;;86.63;33.60;;;;;;;-3.03;100.00;100627.75;10590854;27;20440;-73
2022/12/09 09:11:53;;;;;;;88.40;32.13;;;;;;;-3.10;100.00;100614.97;10590895;27;20044;-72
2022/12/09 09:16:54;;;;;;;92.93;33.30;;;;;;;-2.94;100.00;100632.91;10570504;27;20035;-72
2022/12/09 09:21:54;;;;;;;87.87;32.77;;;;;;;-2.86;100.00;100638.28;10587211;27;20749;-73
2022/12/09 09:26:55;;;;;;;95.50;35.63;;;;;;;-2.75;100.00;100647.00;10588390;28;20621;-73
2022/12/09 09:31:56;;;;;;;85.70;32.17;;;;;;;-2.69;100.00;100652.56;10571494;27;20034;-73
2022/12/09 09:36:56;;;;;;;89.33;33.33;;;;;;;-2.61;100.00;100645.47;10587873;27;20499;-73
2022/12/09 09:42:04;;;;;;;101.50;35.77;;;;;;;-2.58;100.00;100639.72;10570467;27;20039;-72
2022/12/09 09:47:14;;;;;;;101.17;34.97;;;;;;;-2.40;100.00;100650.25;10572867;27;20044;-73
2022/12/09 09:52:17;;;;;;;95.43;36.80;;;;;;;-2.26;100.00;100650.34;10547766;28;20039;-73
2022/12/09 09:57:52;;;;;;;110.70;39.40;;;;;;;-2.03;100.00;100649.56;10532095;28;20077;-73
2022/12/09 10:03:11;;;;;;;121.23;40.67;;;;;;;-1.86;100.00;100634.13;10546892;27;20527;-72
2022/12/09 10:08:36;;;;;;;128.30;47.03;;;;;;;-1.72;100.00;100621.72;10563561;27;20042;-72
2022/12/09 10:13:52;;;;;;;125.00;42.75;;;;;;;-1.38;100.00;100642.06;10584982;27;20046;-72
2022/12/09 10:19:10;;;;;;;112.07;37.63;;;;;;;-1.20;100.00;100642.53;10585529;27;20066;-73
2022/12/09 10:24:14;;;;;;;126.27;44.53;;;;;;;-1.03;100.00;100644.06;10586505;27;20039;-73
2022/12/09 10:29:20;;;;;;;138.80;49.33;;;;;;;-0.94;100.00;100634.00;10569379;27;20110;-72
2022/12/09 10:34:21;;;;;;;134.93;50.53;;;;;;;-0.72;100.00;100648.47;10585620;27;20043;-71
2022/12/09 10:39:21;;;;;;;212.32;55.05;;;;;;;-0.56;100.00;100668.25;10567588;27;20059;-71
2022/12/09 10:44:24;;;;;;;395.70;58.80;;;;;;;-0.50;100.00;100662.91;10566925;28;20043;-72
2022/12/09 10:49:24;;;;;;;254.53;52.50;;;;;;;-0.44;100.00;100655.94;10531577;27;20109;-72
2022/12/09 10:54:34;;;;;;;226.93;56.27;;;;;;;-0.41;100.00;100660.97;10547290;28;20036;-71
2022/12/09 10:59:35;;;;;;;423.90;65.13;;;;;;;-0.38;100.00;100649.78;10560997;27;20036;-72
2022/12/09 11:04:40;;;;;;;339.40;52.93;;;;;;;-0.53;100.00;100640.84;10555267;28;20036;-73
2022/12/09 11:09:48;;;;;;;326.10;54.03;;;;;;;-0.48;100.00;100638.41;10556089;27;20039;-72
2022/12/09 11:14:50;;;;;;;242.32;46.78;;;;;;;-0.43;100.00;100636.00;10564455;27;20107;-72
2022/12/09 11:20:06;;;;;;;283.40;50.77;;;;;;;-0.52;100.00;100637.09;10542171;27;20044;-72
2022/12/09 11:25:25;;;;;;;178.05;44.75;;;;;;;-0.66;100.00;100638.81;10564163;27;20039;-72
2022/12/09 11:30:35;;;;;;;171.43;43.03;;;;;;;-0.59;100.00;100638.88;10547692;27;20035;-72
2022/12/09 11:35:43;;;;;;;182.40;42.93;;;;;;;-0.59;100.00;100637.00;10606195;27;20600;-72
2022/12/09 11:40:59;;;;;;;135.97;41.73;;;;;;;-0.51;100.00;100639.63;10624080;27;20034;-72
2022/12/09 11:46:03;;;;;;;149.70;40.83;;;;;;;-0.52;100.00;100646.03;10573694;27;20602;-72
2022/12/09 11:51:04;;;;;;;136.37;41.83;;;;;;;-0.42;100.00;100637.66;10605069;27;20035;-72
2022/12/09 11:56:19;;;;;;;146.67;40.50;;;;;;;-0.56;100.00;100646.59;10549837;28;20036;-72
2022/12/09 12:01:45;;;;;;;161.57;41.90;;;;;;;-0.59;100.00;100644.28;10587104;27;20053;-71
2022/12/09 12:07:07;;;;;;;160.35;46.17;;;;;;;-0.51;100.00;100649.59;10618399;27;20043;-71
2022/12/09 12:12:38;;;;;;;197.73;45.57;;;;;;;-0.53;100.00;100652.50;10581783;27;20031;-71
2022/12/09 12:17:44;;;;;;;174.57;45.70;;;;;;;-0.61;100.00;100628.25;10582182;27;20088;-72
2022/12/09 12:22:50;;;;;;;147.80;46.05;;;;;;;-0.45;100.00;100643.44;10561840;28;20028;-71
2022/12/09 12:28:09;;;;;;;;;;;;;;;-0.41;100.00;100639.34;10583518;27;20046;-71
2022/12/09 12:33:34;;;;;;;193.57;46.23;;;;;;;-0.47;100.00;100651.75;10582155;27;19927;-70
2022/12/09 12:39:02;;;;;;;157.67;44.77;;;;;;;-0.44;100.00;100639.69;10559176;27;20051;-71
2022/12/09 12:50:04;;;;;;;128.50;42.13;;;;;;;-0.45;100.00;100624.53;10549069;28;20069;-71
2022/12/09 12:55:17;;;;;;;158.80;45.80;;;;;;;-0.38;100.00;100627.31;10520132;27;20041;-71
2022/12/09 13:00:22;;;;;;;162.03;44.53;;;;;;;-0.45;100.00;100616.41;10525957;28;20104;-71
2022/12/09 13:05:25;;;;;;;147.93;47.42;;;;;;;-0.35;100.00;100619.66;10486284;27;20040;-70
2022/12/09 13:10:40;;;;;;;149.10;44.40;;;;;;;-0.30;100.00;100614.50;10555780;28;20031;-71
2022/12/09 13:15:43;;;;;;;124.47;45.67;;;;;;;-0.42;100.00;100599.78;10539551;28;20032;-71
2022/12/09 13:20:48;;;;;;;135.13;45.17;;;;;;;-0.47;100.00;100591.41;10548420;28;20047;-71
2022/12/09 13:26:26;;;;;;;123.03;46.43;;;;;;;-0.38;100.00;100611.06;10554790;28;20054;-71
2022/12/09 13:31:28;;;;;;;134.93;43.97;;;;;;;-0.39;100.00;100615.66;10556033;28;20044;-71
2022/12/09 13:36:44;;;;;;;135.47;42.87;;;;;;;-0.33;100.00;100620.31;10538012;28;20662;-71
2022/12/09 13:47:27;;;;;;;118.30;41.63;;;;;;;-0.24;100.00;100621.03;10518737;27;20464;-71
2022/12/09 13:52:50;;;;;;;111.83;42.60;;;;;;;-0.23;100.00;100606.47;10529501;28;20044;-68
2022/12/09 13:58:29;;;;;;;110.73;43.17;;;;;;;-0.15;100.00;100602.81;10553286;27;20043;-71
2022/12/09 14:03:32;;;;;;;110.33;41.97;;;;;;;-0.21;100.00;100607.09;10564539;27;20043;-71
2022/12/09 14:08:34;;;;;;;108.60;39.30;;;;;;;-0.28;100.00;100592.69;10545405;27;20499;-71
2022/12/09 14:13:35;;;;;;;106.90;40.47;;;;;;;-0.05;100.00;100616.88;10543730;27;20724;-70
2022/12/09 14:18:35;;;;;;;96.37;37.33;;;;;;;-0.06;100.00;100604.38;10513309;27;20040;-70
2022/12/09 14:23:37;;;;;;;100.40;37.83;;;;;;;-0.15;100.00;100583.88;10556432;27;20031;-71
2022/12/09 14:28:40;;;;;;;95.97;36.00;;;;;;;-0.06;100.00;100594.38;10544730;27;20042;-71
2022/12/09 14:33:43;;;;;;;84.93;33.65;;;;;;;-0.23;100.00;100584.81;10561160;27;20050;-70
2022/12/09 14:38:53;;;;;;;93.97;37.20;;;;;;;-0.27;100.00;100587.09;10536156;28;20044;-70
2022/12/09 14:44:31;;;;;;;93.70;36.67;;;;;;;-0.37;100.00;100589.25;10559908;27;20078;-70
2022/12/09 14:49:31;;;;;;;90.03;35.13;;;;;;;-0.57;100.00;100585.47;10559087;27;20047;-70
2022/12/09 14:54:34;;;;;;;79.57;34.33;;;;;;;-0.69;100.00;100583.22;10522355;27;20503;-70
2022/12/09 14:59:34;;;;;;;90.10;35.50;;;;;;;-0.79;100.00;100582.66;10541920;27;20039;-70
2022/12/09 15:04:43;;;;;;;83.33;35.10;;;;;;;-0.91;100.00;100589.56;10559552;27;20055;-71
2022/12/09 15:09:54;;;;;;;91.37;35.53;;;;;;;-1.11;100.00;100579.31;10542037;27;20536;-71
2022/12/09 15:15:04;;;;;;;76.73;30.40;;;;;;;-1.20;100.00;100599.31;10540237;28;20055;-70
2022/12/09 15:20:05;;;;;;;88.13;33.30;;;;;;;-1.42;100.00;100592.97;10541057;27;20043;-71
2022/12/09 15:25:15;;;;;;;90.83;35.97;;;;;;;-1.45;100.00;100604.09;10542460;28;20857;-71
2022/12/09 15:30:21;;;;;;;93.67;36.70;;;;;;;-1.64;100.00;100594.66;10557284;27;20074;-71
2022/12/09 15:35:23;;;;;;;114.70;39.10;;;;;;;-1.73;100.00;100584.97;10539893;28;20571;-71
2022/12/09 15:40:27;;;;;;;102.77;38.10;;;;;;;-1.86;100.00;100585.53;10523486;27;20071;-71
2022/12/09 15:45:30;;;;;;;107.97;38.00;;;;;;;-1.85;100.00;100596.16;10538882;27;20061;-72
2022/12/09 15:50:40;;;;;;;107.07;38.03;;;;;;;-1.99;100.00;100591.53;10532070;28;20522;-72
2022/12/09 15:55:49;;;;;;;113.33;38.83;;;;;;;-2.36;100.00;100541.88;10557554;27;20058;-72
2022/12/09 16:00:50;;;;;;;103.30;36.30;;;;;;;-2.13;100.00;100611.19;10522783;28;20039;-71
2022/12/09 16:05:55;;;;;;;107.93;38.00;;;;;;;-2.27;100.00;100610.09;10556352;27;20775;-72
2022/12/09 16:10:57;;;;;;;102.83;39.33;;;;;;;-2.41;100.00;100609.00;10534504;27;20036;-72
2022/12/09 16:15:59;;;;;;;117.43;38.23;;;;;;;-2.35;100.00;100635.25;10551540;27;20055;-72
2022/12/09 16:21:02;;;;;;;122.03;41.60;;;;;;;-2.41;100.00;100630.56;10528026;28;20031;-72
2022/12/09 16:26:02;;;;;;;115.17;41.83;;;;;;;-2.58;100.00;100601.97;10550497;27;20107;-72
2022/12/09 16:31:03;;;;;;;116.97;40.13;;;;;;;-2.54;100.00;100617.66;10537070;28;20051;-72
2022/12/09 16:36:05;;;;;;;126.30;42.07;;;;;;;-2.57;100.00;100620.69;10553597;28;20058;-74
2022/12/09 16:41:05;;;;;;;128.57;43.03;;;;;;;-2.63;100.00;100621.38;10522681;27;20040;-72
2022/12/09 16:46:12;;;;;;;119.03;40.73;;;;;;;-2.68;100.00;100624.59;10590469;27;20047;-72
2022/12/09 16:51:13;;;;;;;126.40;42.80;;;;;;;-2.83;100.00;100610.19;10576988;27;21235;-72
2022/12/09 16:56:25;;;;;;;123.53;41.47;;;;;;;-2.77;100.00;100631.03;10499917;28;20165;-73
2022/12/09 17:01:32;;;;;;;141.07;41.67;;;;;;;-2.79;100.00;100621.44;10488904;27;20044;-72
2022/12/09 17:06:33;;;;;;;144.73;44.97;;;;;;;-2.85;100.00;100626.50;10490527;27;20092;-74
2022/12/09 17:11:33;;;;;;;141.03;48.93;;;;;;;-2.87;100.00;100617.75;10524292;27;20119;-74
2022/12/09 17:16:34;;;;;;;139.10;47.10;;;;;;;-2.80;100.00;100620.59;10487970;27;20574;-72
2022/12/09 17:21:35;;;;;;;148.47;50.13;;;;;;;-2.77;100.00;100625.66;10502580;27;20047;-74
2022/12/09 17:26:35;;;;;;;144.10;47.87;;;;;;;-2.83;100.00;100637.13;10527438;27;20040;-73
2022/12/09 17:31:36;;;;;;;131.47;44.37;;;;;;;-2.82;100.00;100646.88;10522417;27;20040;-74
2022/12/09 17:36:37;;;;;;;134.73;46.40;;;;;;;-3.02;100.00;100626.72;10507005;27;20036;-74
2022/12/09 17:41:38;;;;;;;120.07;44.40;;;;;;;-2.97;100.00;100637.84;10525761;27;20120;-73
2022/12/09 17:46:38;;;;;;;133.93;46.33;;;;;;;-3.10;100.00;100631.13;10524343;27;20096;-73
2022/12/09 17:51:39;;;;;;;117.90;41.27;;;;;;;-3.09;100.00;100640.88;10537620;27;20036;-73
2022/12/09 17:56:39;;;;;;;115.67;41.63;;;;;;;-3.17;100.00;100643.56;10518897;27;20055;-73
2022/12/09 18:01:42;;;;;;;113.23;42.00;;;;;;;-3.28;100.00;100646.63;10558077;27;20034;-74
2022/12/09 18:06:43;;;;;;;124.07;43.67;;;;;;;-3.28;100.00;100665.47;10600965;27;20064;-73
2022/12/09 18:11:44;;;;;;;114.13;41.87;;;;;;;-3.36;100.00;100660.09;10595190;27;20094;-73
2022/12/09 18:16:45;;;;;;;130.77;44.60;;;;;;;-3.31;100.00;100685.50;10570613;27;20032;-74
2022/12/09 18:21:45;;;;;;;110.50;44.70;;;;;;;-3.33;100.00;100683.97;10547999;28;20032;-74
2022/12/09 18:26:46;;;;;;;126.07;42.53;;;;;;;-3.42;100.00;100664.28;10584796;27;20028;-74
2022/12/09 18:31:48;;;;;;;110.40;41.47;;;;;;;-3.36;100.00;100684.31;10579559;27;20542;-74
2022/12/09 18:36:49;;;;;;;118.53;43.97;;;;;;;-3.42;100.00;100680.44;10583454;27;20071;-73
2022/12/09 18:41:50;;;;;;;113.63;40.57;;;;;;;-3.49;100.00;100684.81;10573249;27;20375;-74
2022/12/09 18:46:50;;;;;;;125.17;43.50;;;;;;;-3.62;100.00;100679.91;10584226;27;20039;-74
2022/12/09 18:51:51;;;;;;;126.80;45.17;;;;;;;-4.65;100.00;100513.56;10572574;27;20029;-74
2022/12/09 18:56:52;;;;;;;120.70;41.37;;;;;;;-3.60;100.00;100696.72;10581346;27;20042;-74
2022/12/09 19:01:53;;;;;;;121.30;42.40;;;;;;;-3.67;100.00;100693.03;10579586;27;20050;-74
2022/12/09 19:06:55;;;;;;;121.33;43.10;;;;;;;-3.66;100.00;100682.13;10546638;28;20099;-74
2022/12/09 19:11:56;;;;;;;123.50;44.23;;;;;;;-3.64;100.00;100681.91;10551620;28;20064;-74
2022/12/09 19:16:56;;;;;;;126.90;42.63;;;;;;;-3.54;100.00;100695.22;10584000;27;20059;-74
2022/12/09 19:21:57;;;;;;;116.33;40.73;;;;;;;-3.74;100.00;100675.84;10583575;27;20039;-74
2022/12/09 19:26:57;;;;;;;123.60;42.93;;;;;;;-3.59;100.00;100700.28;10579829;27;20248;-73
2022/12/09 19:31:58;;;;;;;121.70;44.50;;;;;;;-3.60;100.00;100696.72;10564794;27;20388;-74
2022/12/09 19:36:59;;;;;;;118.47;42.13;;;;;;;-3.67;100.00;100687.66;10564630;27;20042;-74
2022/12/09 19:41:59;;;;;;;111.70;41.10;;;;;;;-3.64;100.00;100703.44;10572198;28;20051;-75
2022/12/09 19:47:00;;;;;;;111.37;41.40;;;;;;;-3.62;100.00;100703.28;10578015;27;20039;-74
2022/12/09 19:52:02;;;;;;;122.23;44.20;;;;;;;-3.63;100.00;100698.94;10574601;27;20020;-74
2022/12/09 19:57:04;;;;;;;119.90;42.40;;;;;;;-3.66;100.00;100695.56;10546949;27;20044;-75
2022/12/09 20:02:06;;;;;;;115.67;40.33;;;;;;;-3.76;100.00;100684.13;10533654;27;20039;-75
2022/12/09 20:07:07;;;;;;;115.43;38.27;;;;;;;-3.87;100.00;100687.94;10515456;27;20043;-75
2022/12/09 20:12:07;;;;;;;99.73;38.50;;;;;;;-3.87;100.00;100698.69;10552373;27;20035;-74
2022/12/09 20:17:08;;;;;;;107.77;38.40;;;;;;;-3.85;100.00;100704.75;10552274;27;20058;-75
2022/12/09 20:22:08;;;;;;;105.40;38.27;;;;;;;-3.85;100.00;100728.97;10538341;27;20064;-74
2022/12/09 20:27:11;;;;;;;104.87;38.03;;;;;;;-3.91;100.00;100735.00;10567824;28;20503;-74
2022/12/09 20:32:12;;;;;;;105.13;37.07;;;;;;;-4.01;100.00;100714.63;10544745;27;20043;-74
2022/12/09 20:37:12;;;;;;;101.97;36.93;;;;;;;-4.11;100.00;100722.84;10586348;27;20040;-74
2022/12/09 20:42:13;;;;;;;107.90;40.73;;;;;;;-4.11;100.00;100728.22;10554008;28;20179;-74
2022/12/09 20:47:13;;;;;;;109.50;39.10;;;;;;;-4.10;100.00;100727.22;10579831;28;20035;-75
2022/12/09 20:52:14;;;;;;;104.47;38.47;;;;;;;-4.13;100.00;100741.00;10579229;28;20035;-74
2022/12/09 20:57:15;;;;;;;110.37;38.03;;;;;;;-4.12;100.00;100723.84;10559836;28;20438;-71
2022/12/09 21:02:16;;;;;;;110.23;37.73;;;;;;;-4.00;100.00;100719.84;10563721;27;20051;-75
2022/12/09 21:07:16;;;;;;;97.60;36.17;;;;;;;-3.97;100.00;100730.28;10580312;27;20143;-75
2022/12/09 21:12:17;;;;;;;98.83;35.47;;;;;;;-3.79;100.00;100748.16;10556821;28;20022;-75
2022/12/09 21:17:17;;;;;;;96.50;36.80;;;;;;;-3.88;100.00;100739.22;10569194;27;20032;-75
2022/12/09 21:22:18;;;;;;;96.63;34.53;;;;;;;-3.89;100.00;100735.66;10554067;28;20058;-74
2022/12/09 21:27:18;;;;;;;103.03;38.03;;;;;;;-4.04;100.00;100723.88;10578720;28;20046;-74
2022/12/09 21:32:19;;;;;;;103.50;36.37;;;;;;;-3.90;100.00;100749.31;10576949;28;20036;-74
2022/12/09 21:37:19;;;;;;;95.73;37.10;;;;;;;-3.88;100.00;100745.44;10579357;28;20069;-74
2022/12/09 21:42:20;;;;;;;112.20;38.07;;;;;;;-3.79;100.00;100742.78;10540488;27;20100;-74
2022/12/09 21:47:20;;;;;;;109.33;41.83;;;;;;;-3.67;100.00;100754.91;10565664;28;20032;-74
2022/12/09 21:52:21;;;;;;;110.70;44.60;;;;;;;-3.68;100.00;100751.38;10574470;28;20035;-74
2022/12/09 21:57:21;;;;;;;124.70;51.77;;;;;;;-3.93;100.00;100720.88;10577893;28;20047;-75
2022/12/09 22:02:22;;;;;;;131.10;55.03;;;;;;;-3.87;100.00;100744.41;10562111;27;20031;-74
2022/12/09 22:07:22;;;;;;;132.07;51.47;;;;;;;-3.90;100.00;100750.13;10571088;27;20032;-74
2022/12/09 22:12:23;;;;;;;117.37;43.10;;;;;;;-3.94;100.00;100739.88;10580995;27;20040;-75
2022/12/09 22:17:24;;;;;;;111.57;44.07;;;;;;;-4.08;100.00;100731.41;10562589;27;20066;-75
2022/12/09 22:22:24;;;;;;;116.83;40.17;;;;;;;-3.97;100.00;100746.44;10536567;27;20040;-75
2022/12/09 22:27:25;;;;;;;114.10;38.87;;;;;;;-3.97;100.00;100742.88;10551350;27;20074;-74
2022/12/09 22:32:27;;;;;;;111.27;39.77;;;;;;;-3.99;100.00;100740.38;10499715;27;21035;-75